Time;durP1;ratioP1;P1;durP2;ratioP2;P2;SDS_P1;SDS_P2;PMS_P1;PMS_P2;Temp;Humidity;BMP_temperature;BMP_pressure;BME280_temperature;BME280_humidity;BME280_pressure;Samples;Min_cycle;Max_cycle;Signal;HPM_P1;HPM_P2
2022/04/21 00:01:24;;;;;;;6.68;6.07;;;;;;;;;;5023339;28;20423;-77
2022/04/21 00:03:52;;;;;;;6.30;5.70;;;;;;;;;;5020407;28;20210;-76
2022/04/21 00:06:19;;;;;;;6.15;5.65;;;;;;;;;;5024583;28;20511;-76
2022/04/21 00:08:47;;;;;;;7.82;6.18;;;;;;;;;;5023235;28;20037;-76
2022/04/21 00:11:15;;;;;;;6.70;5.97;;;;;;;;;;5021047;28;20472;-76
2022/04/21 00:13:42;;;;;;;6.75;6.15;;;;;;;;;;5015326;28;20045;-76
2022/04/21 00:16:09;;;;;;;7.03;6.00;;;;;;;;;;5022108;28;20244;-76
2022/04/21 00:18:37;;;;;;;6.90;6.20;;;;;;;;;;5026426;28;20041;-76
2022/04/21 00:21:05;;;;;;;6.80;6.30;;;;;;;;;;5020510;28;20040;-77
2022/04/21 00:23:33;;;;;;;6.88;5.75;;;;;;;;;;5014877;28;20071;-76
2022/04/21 00:26:01;;;;;;;6.45;5.95;;;;;;;;;;5020594;28;20540;-78
2022/04/21 00:28:29;;;;;;;6.82;6.22;;;;;;;;;;5020433;28;20349;-77
2022/04/21 00:30:57;;;;;;;6.57;6.07;;;;;;;;;;5021354;28;21375;-77
2022/04/21 00:33:24;;;;;;;6.82;6.13;;;;;;;;;;5021976;28;20313;-77
2022/04/21 00:35:52;;;;;;;7.10;6.50;;;;;;;;;;5021201;28;20073;-76
2022/04/21 00:38:19;;;;;;;6.60;6.00;;;;;;;;;;5019752;28;20397;-77
2022/04/21 00:40:49;;;;;;;6.95;6.35;;;;;;;;;;5024347;28;20063;-77
2022/04/21 00:43:17;;;;;;;6.95;6.35;;;;;;;;;;5023167;28;20059;-77
2022/04/21 00:45:45;;;;;;;6.07;5.57;;;;;;;;;;5042540;28;20137;-76
2022/04/21 00:48:12;;;;;;;6.80;6.05;;;;;;;;;;5028443;28;20045;-77
2022/04/21 00:50:40;;;;;;;7.43;6.70;;;;;;;;;;5023548;28;20033;-77
2022/04/21 00:53:08;;;;;;;7.45;5.97;;;;;;;;;;5025722;28;20751;-77
2022/04/21 00:55:36;;;;;;;7.28;6.40;;;;;;;;;;5082046;22;20135;-78
2022/04/21 00:58:05;;;;;;;6.88;6.38;;;;;;;;;;5072766;28;20040;-78
2022/04/21 01:00:32;;;;;;;6.80;6.10;;;;;;;;;;5073608;28;20451;-77
2022/04/21 01:03:01;;;;;;;7.20;6.43;;;;;;;;;;5075813;28;20047;-78
2022/04/21 01:05:31;;;;;;;6.10;5.60;;;;;;;;;;5077724;28;20056;-77
2022/04/21 01:07:59;;;;;;;5.80;5.40;;;;;;;;;;5078402;28;20072;-78
2022/04/21 01:10:28;;;;;;;9.68;5.50;;;;;;;;;;5074705;28;20955;-77
2022/04/21 01:12:55;;;;;;;5.82;5.25;;;;;;;;;;5081993;28;20036;-77
2022/04/21 01:15:23;;;;;;;6.43;5.93;;;;;;;;;;5081366;28;20044;-77
2022/04/21 01:17:52;;;;;;;6.05;5.45;;;;;;;;;;5089950;28;20505;-79
2022/04/21 01:20:20;;;;;;;6.80;5.60;;;;;;;;;;5082123;28;20052;-78
2022/04/21 01:22:47;;;;;;;6.47;5.38;;;;;;;;;;5081809;28;20059;-78
2022/04/21 01:25:14;;;;;;;6.00;5.50;;;;;;;;;;5100561;27;20102;-78
2022/04/21 01:27:42;;;;;;;9.98;5.85;;;;;;;;;;5090536;28;20040;-78
2022/04/21 01:30:11;;;;;;;6.32;5.72;;;;;;;;;;5084384;28;20770;-78
2022/04/21 01:32:42;;;;;;;7.28;5.38;;;;;;;;;;5076440;28;20032;-78
2022/04/21 01:35:10;;;;;;;6.28;5.60;;;;;;;;;;5103842;27;20052;-77
2022/04/21 01:43:11;;;;;;;6.28;5.60;;;;;;;;;;5080279;28;20163;-78
2022/04/21 01:45:39;;;;;;;5.43;5.03;;;;;;;;;;5081853;28;20055;-78
2022/04/21 01:48:06;;;;;;;5.65;5.05;;;;;;;;;;5078994;28;20036;-78
2022/04/21 01:50:33;;;;;;;5.82;5.32;;;;;;;;;;5084662;28;20037;-78
2022/04/21 01:53:01;;;;;;;5.70;5.20;;;;;;;;;;5089625;28;20681;-78
2022/04/21 01:55:28;;;;;;;6.03;5.43;;;;;;;;;;5082317;28;20079;-78
2022/04/21 01:57:55;;;;;;;6.53;5.25;;;;;;;;;;5082634;28;20039;-78
2022/04/21 02:00:23;;;;;;;5.72;5.22;;;;;;;;;;5084123;28;20044;-78
2022/04/21 02:02:50;;;;;;;7.88;5.60;;;;;;;;;;5085913;28;20051;-78
2022/04/21 02:05:18;;;;;;;5.60;5.10;;;;;;;;;;5077218;28;20040;-79
2022/04/21 02:07:46;;;;;;;6.20;5.60;;;;;;;;;;5085492;28;20374;-78
2022/04/21 02:10:16;;;;;;;5.95;5.45;;;;;;;;;;5076006;28;20036;-78
2022/04/21 02:12:45;;;;;;;6.32;5.20;;;;;;;;;;5083988;28;20032;-78
2022/04/21 02:15:12;;;;;;;6.03;5.53;;;;;;;;;;5083223;28;20035;-78
2022/04/21 02:17:40;;;;;;;6.07;5.53;;;;;;;;;;5084519;28;20185;-78
2022/04/21 02:20:08;;;;;;;5.68;5.18;;;;;;;;;;5070795;28;20070;-78
2022/04/21 02:22:36;;;;;;;5.72;5.15;;;;;;;;;;5085222;28;20052;-76
2022/04/21 02:25:04;;;;;;;6.28;5.68;;;;;;;;;;5084179;28;20119;-76
2022/04/21 02:27:31;;;;;;;5.93;5.43;;;;;;;;;;5081372;28;20056;-76
2022/04/21 02:29:59;;;;;;;5.95;5.45;;;;;;;;;;5069295;28;20048;-76
2022/04/21 02:32:26;;;;;;;9.85;5.30;;;;;;;;;;5083168;28;20036;-76
2022/04/21 02:34:54;;;;;;;5.90;5.40;;;;;;;;;;5073212;28;20051;-77
2022/04/21 02:37:21;;;;;;;8.00;5.28;;;;;;;;;;5083855;28;20047;-77
2022/04/21 02:39:52;;;;;;;6.18;5.32;;;;;;;;;;5083793;28;20056;-77
2022/04/21 02:42:20;;;;;;;5.93;5.40;;;;;;;;;;5078723;28;20127;-77
2022/04/21 02:44:50;;;;;;;5.93;5.40;;;;;;;;;;5082588;28;20539;-77
2022/04/21 02:47:17;;;;;;;7.00;5.72;;;;;;;;;;5086417;28;20067;-78
2022/04/21 02:49:47;;;;;;;6.28;5.68;;;;;;;;;;5077365;28;20044;-77
2022/04/21 02:52:15;;;;;;;6.22;5.65;;;;;;;;;;5080306;28;20113;-78
2022/04/21 02:57:30;;;;;;;5.28;4.88;;;;;;;;;;5085803;28;20123;-77
2022/04/21 03:00:00;;;;;;;5.55;5.15;;;;;;;;;;5086892;28;20584;-77
2022/04/21 03:02:27;;;;;;;6.60;6.00;;;;;;;;;;5084364;28;20064;-77
2022/04/21 03:04:55;;;;;;;6.07;5.38;;;;;;;;;;5073397;28;20143;-77
2022/04/21 03:07:23;;;;;;;9.23;6.13;;;;;;;;;;5080826;28;20055;-77
2022/04/21 03:09:51;;;;;;;6.18;5.60;;;;;;;;;;5078195;28;20064;-77
2022/04/21 03:12:18;;;;;;;6.20;5.60;;;;;;;;;;5082423;28;20043;-78
2022/04/21 03:14:46;;;;;;;6.13;5.53;;;;;;;;;;5081476;28;20059;-77
2022/04/21 03:17:13;;;;;;;8.38;5.88;;;;;;;;;;5085869;28;20040;-77
2022/04/21 03:19:40;;;;;;;6.15;5.28;;;;;;;;;;5081912;28;20058;-77
2022/04/21 03:25:05;;;;;;;6.55;5.93;;;;;;;;;;5074758;28;20524;-77
2022/04/21 03:27:32;;;;;;;6.30;5.78;;;;;;;;;;5075153;28;20048;-77
2022/04/21 03:30:05;;;;;;;6.40;5.43;;;;;;;;;;5081677;28;20044;-77
2022/04/21 03:32:33;;;;;;;6.40;5.80;;;;;;;;;;5076660;28;20476;-77
2022/04/21 03:35:00;;;;;;;6.22;5.70;;;;;;;;;;5083073;28;20050;-77
2022/04/21 03:37:28;;;;;;;10.52;5.82;;;;;;;;;;5077762;28;20055;-78
2022/04/21 03:39:55;;;;;;;6.40;5.80;;;;;;;;;;5083101;28;20463;-77
2022/04/21 03:42:24;;;;;;;7.57;6.07;;;;;;;;;;5083515;28;20070;-77
2022/04/21 03:44:52;;;;;;;6.60;6.00;;;;;;;;;;5076453;28;20140;-77
2022/04/21 03:47:20;;;;;;;7.55;6.05;;;;;;;;;;5081984;28;20082;-77
2022/04/21 03:49:47;;;;;;;6.45;5.60;;;;;;;;;;5084268;28;20040;-77
2022/04/21 03:52:15;;;;;;;7.28;6.45;;;;;;;;;;5079471;28;20062;-77
2022/04/21 03:54:42;;;;;;;7.47;6.50;;;;;;;;;;5076086;28;20059;-78
2022/04/21 03:57:09;;;;;;;11.48;6.90;;;;;;;;;;5081678;28;20044;-77
2022/04/21 03:59:37;;;;;;;10.10;6.07;;;;;;;;;;5061879;28;20044;-77
2022/04/21 04:02:05;;;;;;;10.50;8.25;;;;;;;;;;5085665;28;20505;-78
2022/04/21 04:04:33;;;;;;;10.88;7.75;;;;;;;;;;5070939;28;20406;-77
2022/04/21 04:12:34;;;;;;;9.25;7.63;;;;;;;;;;5082619;28;20039;-78
2022/04/21 04:15:02;;;;;;;11.32;7.38;;;;;;;;;;5068622;28;20885;-78
2022/04/21 04:17:31;;;;;;;9.80;8.00;;;;;;;;;;5083460;28;20068;-78
2022/04/21 04:19:59;;;;;;;13.90;8.43;;;;;;;;;;5083268;28;20043;-78
2022/04/21 04:22:27;;;;;;;12.80;9.23;;;;;;;;;;5084676;28;20135;-78
2022/04/21 04:24:56;;;;;;;9.48;8.23;;;;;;;;;;5079207;28;20496;-77
2022/04/21 04:27:24;;;;;;;12.38;8.60;;;;;;;;;;5076576;28;20535;-77
2022/04/21 04:29:51;;;;;;;14.05;9.13;;;;;;;;;;5087615;28;20078;-77
2022/04/21 04:32:18;;;;;;;19.35;13.02;;;;;;;;;;5086613;28;20484;-77
2022/04/21 04:34:46;;;;;;;14.23;11.05;;;;;;;;;;5082808;28;20098;-78
2022/04/21 04:37:13;;;;;;;13.73;8.60;;;;;;;;;;5080609;28;20758;-78
2022/04/21 04:39:41;;;;;;;11.52;8.10;;;;;;;;;;5082749;28;20043;-78
2022/04/21 04:42:17;;;;;;;10.00;8.55;;;;;;;;;;5079234;28;20084;-78
2022/04/21 04:44:48;;;;;;;9.93;7.82;;;;;;;;;;5077195;28;20097;-77
2022/04/21 04:47:15;;;;;;;11.18;7.68;;;;;;;;;;5082259;28;20051;-78
2022/04/21 04:49:42;;;;;;;8.45;7.40;;;;;;;;;;5084911;28;20046;-77
2022/04/21 04:52:10;;;;;;;8.93;8.02;;;;;;;;;;5086160;28;20068;-78
2022/04/21 04:54:37;;;;;;;8.77;7.88;;;;;;;;;;5073070;28;20040;-78
2022/04/21 04:57:04;;;;;;;9.85;7.30;;;;;;;;;;5081964;28;20036;-78
2022/04/21 04:59:32;;;;;;;9.48;8.10;;;;;;;;;;5078715;28;20114;-78
2022/04/21 05:02:01;;;;;;;9.63;8.10;;;;;;;;;;5084696;28;20105;-78
2022/04/21 05:04:28;;;;;;;10.88;8.20;;;;;;;;;;5086266;28;20505;-79
2022/04/21 05:06:57;;;;;;;8.98;8.07;;;;;;;;;;5086143;28;20047;-77
2022/04/21 05:09:25;;;;;;;8.82;7.90;;;;;;;;;;5086800;28;20060;-78
2022/04/21 05:11:54;;;;;;;10.48;7.75;;;;;;;;;;5089450;28;20068;-77
2022/04/21 05:14:21;;;;;;;8.57;7.65;;;;;;;;;;5087782;28;20032;-78
2022/04/21 05:16:49;;;;;;;9.60;6.70;;;;;;;;;;5080887;28;20150;-78
2022/04/21 05:19:19;;;;;;;8.10;7.28;;;;;;;;;;5081882;28;20036;-78
2022/04/21 05:21:48;;;;;;;;;;;;;;;;;;5084267;28;20040;-80
2022/04/21 05:24:16;;;;;;;8.32;7.10;;;;;;;;;;5083718;28;20011;-78
2022/04/21 05:26:48;;;;;;;9.73;6.93;;;;;;;;;;5079942;28;20040;-79
2022/04/21 05:32:03;;;;;;;8.30;7.28;;;;;;;;;;5086139;28;20135;-78
2022/04/21 05:34:31;;;;;;;8.57;6.78;;;;;;;;;;5088773;28;20038;-78
2022/04/21 05:36:59;;;;;;;7.13;6.43;;;;;;;;;;5085105;28;20036;-78
2022/04/21 05:39:27;;;;;;;9.13;6.50;;;;;;;;;;5087212;28;20547;-77
2022/04/21 05:41:56;;;;;;;7.53;6.75;;;;;;;;;;5070193;28;20074;-78
2022/04/21 05:44:24;;;;;;;8.50;7.72;;;;;;;;;;5081373;28;20037;-78
2022/04/21 05:46:52;;;;;;;7.63;6.93;;;;;;;;;;5085312;28;20033;-78
2022/04/21 05:49:21;;;;;;;7.85;7.00;;;;;;;;;;5087253;28;20044;-80
2022/04/21 05:51:48;;;;;;;8.40;7.47;;;;;;;;;;5088982;28;20040;-77
2022/04/21 05:54:16;;;;;;;8.57;7.68;;;;;;;;;;5088856;28;20055;-78
2022/04/21 05:56:44;;;;;;;9.18;8.07;;;;;;;;;;5088793;28;20036;-78
2022/04/21 05:59:11;;;;;;;9.80;8.02;;;;;;;;;;5089321;28;20075;-78
2022/04/21 06:01:39;;;;;;;8.68;7.30;;;;;;;;;;5090341;28;20398;-78
2022/04/21 06:04:06;;;;;;;12.68;8.23;;;;;;;;;;5088753;28;20067;-78
2022/04/21 06:06:34;;;;;;;11.68;8.40;;;;;;;;;;5088543;28;20051;-77
2022/04/21 06:09:01;;;;;;;8.68;7.70;;;;;;;;;;5080812;28;20044;-77
2022/04/21 06:11:32;;;;;;;13.15;9.48;;;;;;;;;;5083898;28;20532;-79
2022/04/21 06:13:59;;;;;;;9.50;8.15;;;;;;;;;;5083304;28;20044;-77
2022/04/21 06:16:28;;;;;;;18.85;8.02;;;;;;;;;;5083387;28;20040;-78
2022/04/21 06:18:55;;;;;;;8.55;7.63;;;;;;;;;;5088069;28;20072;-78
2022/04/21 06:21:23;;;;;;;7.82;7.10;;;;;;;;;;5084488;28;20052;-78
2022/04/21 06:23:50;;;;;;;10.98;7.93;;;;;;;;;;5085661;28;20421;-78
2022/04/21 06:26:18;;;;;;;9.52;7.53;;;;;;;;;;5087592;28;20136;-77
2022/04/21 06:28:47;;;;;;;8.13;7.40;;;;;;;;;;5088256;28;20043;-79
2022/04/21 06:31:16;;;;;;;9.95;7.97;;;;;;;;;;5054321;28;20457;-77
2022/04/21 06:33:44;;;;;;;10.82;9.73;;;;;;;;;;5090288;28;20040;-79
2022/04/21 06:36:12;;;;;;;11.60;10.35;;;;;;;;;;5083339;28;20520;-77
2022/04/21 06:38:39;;;;;;;11.13;8.85;;;;;;;;;;5090403;28;20032;-77
2022/04/21 06:41:06;;;;;;;8.40;7.55;;;;;;;;;;5086840;28;20144;-77
2022/04/21 06:49:05;;;;;;;9.85;8.93;;;;;;;;;;5082931;28;20051;-78
2022/04/21 06:51:33;;;;;;;10.00;8.75;;;;;;;;;;5048521;28;20508;-78
2022/04/21 06:54:00;;;;;;;11.75;9.20;;;;;;;;;;5088713;28;20036;-78
2022/04/21 06:56:27;;;;;;;12.45;9.02;;;;;;;;;;5085617;28;20435;-78
2022/04/21 06:58:55;;;;;;;12.85;8.38;;;;;;;;;;5085698;28;20047;-78
2022/04/21 07:01:23;;;;;;;9.00;8.10;;;;;;;;;;5084995;28;20039;-78
2022/04/21 07:03:50;;;;;;;9.00;8.10;;;;;;;;;;5086105;28;20048;-78
2022/04/21 07:06:18;;;;;;;8.85;8.05;;;;;;;;;;5082952;28;20037;-79
2022/04/21 07:08:45;;;;;;;11.50;8.07;;;;;;;;;;5086825;28;20695;-77
2022/04/21 07:11:15;;;;;;;9.00;7.90;;;;;;;;;;5094915;22;20127;-85
2022/04/21 07:14:20;;;;;;;8.57;7.70;;;;;;;;;;5018148;28;20040;-81
2022/04/21 07:16:58;;;;;;;8.77;7.88;;;;;;;;;;5039708;28;20045;-81
2022/04/21 07:20:07;;;;;;;;;;;;;;;;;;;;;
2022/04/21 07:22:58;;;;;;;9.57;7.80;;;;;;;;;;5018566;28;20053;-81
2022/04/21 07:26:00;;;;;;;8.90;8.00;;;;;;;;;;5024437;28;20475;-80
2022/04/21 07:32:05;;;;;;;10.93;8.10;;;;;;;;;;5001565;28;20041;-85
2022/04/21 07:35:38;;;;;;;8.20;7.40;;;;;;;;;;5019175;28;20111;-83
2022/04/21 07:38:46;;;;;;;7.72;7.00;;;;;;;;;;4986285;28;20049;-81
2022/04/21 07:41:37;;;;;;;8.07;7.32;;;;;;;;;;5029445;28;20066;-80
2022/04/21 07:45:08;;;;;;;8.60;7.70;;;;;;;;;;5020290;28;20124;-81
2022/04/21 07:55:12;;;;;;;8.32;7.50;;;;;;;;;;4941228;29;20050;-80
2022/04/21 07:57:55;;;;;;;7.95;7.25;;;;;;;;;;4928684;29;20130;-79
2022/04/21 08:00:39;;;;;;;8.07;7.38;;;;;;;;;;4933478;28;20783;-79
2022/04/21 08:03:47;;;;;;;7.60;6.93;;;;;;;;;;4902727;29;20058;-80
2022/04/21 08:07:16;;;;;;;8.00;7.30;;;;;;;;;;4908435;29;20085;-82
2022/04/21 08:10:15;;;;;;;9.32;7.75;;;;;;;;;;4946443;28;20047;-79
2022/04/21 08:12:58;;;;;;;9.02;8.13;;;;;;;;;;4923098;28;20154;-80
2022/04/21 08:15:32;;;;;;;8.88;7.95;;;;;;;;;;4939742;28;20055;-83
2022/04/21 08:18:17;;;;;;;;;;;;;;;;;;;;;
2022/04/21 08:21:37;;;;;;;9.00;7.88;;;;;;;;;;4944848;28;20047;-81
2022/04/21 08:34:39;;;;;;;7.47;6.88;;;;;;;;;;4983611;28;20049;-80
2022/04/21 08:37:23;;;;;;;9.82;7.88;;;;;;;;;;5003413;28;20050;-79
2022/04/21 08:40:29;;;;;;;9.70;8.23;;;;;;;;;;5008356;28;20180;-79
2022/04/21 08:46:27;;;;;;;8.57;7.78;;;;;;;;;;5018386;28;20041;-78
2022/04/21 08:49:21;;;;;;;10.40;8.18;;;;;;;;;;4998771;28;20042;-80
2022/04/21 08:52:05;;;;;;;8.02;7.35;;;;;;;;;;5012562;28;20044;-79
2022/04/21 08:54:54;;;;;;;8.55;7.75;;;;;;;;;;4994924;28;20049;-81
2022/04/21 08:58:13;;;;;;;8.63;7.80;;;;;;;;;;5024121;28;20042;-78
2022/04/21 09:02:06;;;;;;;7.82;7.03;;;;;;;;;;5005391;28;20057;-78
2022/04/21 09:05:44;;;;;;;10.23;7.47;;;;;;;;;;4999828;28;20072;-78
2022/04/21 09:08:34;;;;;;;7.60;7.00;;;;;;;;;;5003866;28;20060;-78
2022/04/21 09:11:35;;;;;;;8.85;7.47;;;;;;;;;;4995780;28;20094;-79
2022/04/21 09:14:18;;;;;;;8.57;7.72;;;;;;;;;;4993490;28;20050;-79
2022/04/21 09:16:51;;;;;;;7.95;7.25;;;;;;;;;;5033848;28;20049;-80
2022/04/21 09:20:01;;;;;;;7.75;7.05;;;;;;;;;;4998650;28;20048;-78
2022/04/21 09:22:42;;;;;;;7.53;6.80;;;;;;;;;;5038413;28;20041;-79
2022/04/21 09:25:36;;;;;;;6.78;6.25;;;;;;;;;;4995483;28;20061;-78
2022/04/21 09:28:41;;;;;;;8.75;6.80;;;;;;;;;;5036830;28;20117;-79
2022/04/21 09:31:10;;;;;;;6.78;6.20;;;;;;;;;;5016865;28;20049;-80
2022/04/21 09:33:40;;;;;;;7.30;6.57;;;;;;;;;;5024955;28;20061;-78
2022/04/21 09:36:08;;;;;;;7.10;6.40;;;;;;;;;;5027087;28;20037;-80
2022/04/21 09:38:35;;;;;;;6.22;5.63;;;;;;;;;;5039257;28;20096;-78
2022/04/21 09:41:06;;;;;;;6.63;5.93;;;;;;;;;;5037564;28;20052;-79
2022/04/21 09:43:37;;;;;;;8.07;5.93;;;;;;;;;;5037960;28;20163;-79
2022/04/21 09:46:17;;;;;;;6.55;5.78;;;;;;;;;;5025591;28;20080;-81
2022/04/21 09:48:45;;;;;;;6.32;5.72;;;;;;;;;;5030826;28;20052;-79
2022/04/21 09:51:13;;;;;;;6.15;5.63;;;;;;;;;;5013174;28;20343;-79
2022/04/21 09:54:00;;;;;;;5.45;4.93;;;;;;;;;;5035205;28;20072;-79
2022/04/21 09:56:31;;;;;;;5.72;5.22;;;;;;;;;;5031101;28;20523;-79
2022/04/21 09:59:07;;;;;;;5.25;4.75;;;;;;;;;;5032980;28;20037;-82
2022/04/21 10:01:37;;;;;;;5.20;4.70;;;;;;;;;;5031559;28;20037;-81
2022/04/21 10:04:09;;;;;;;6.65;4.90;;;;;;;;;;5028103;28;20041;-80
2022/04/21 10:06:38;;;;;;;5.50;5.00;;;;;;;;;;5031962;28;20049;-79
2022/04/21 10:09:06;;;;;;;6.45;5.38;;;;;;;;;;4993561;28;20411;-80
2022/04/21 10:11:33;;;;;;;5.85;5.30;;;;;;;;;;5027223;28;20097;-78
2022/04/21 10:14:02;;;;;;;7.07;6.00;;;;;;;;;;5029591;28;20041;-78
2022/04/21 10:16:29;;;;;;;6.40;5.80;;;;;;;;;;5034139;28;20055;-79
2022/04/21 10:18:58;;;;;;;6.22;5.63;;;;;;;;;;5027278;28;20061;-79
2022/04/21 10:21:33;;;;;;;6.63;5.32;;;;;;;;;;5027656;28;20040;-78
2022/04/21 10:24:21;;;;;;;6.00;5.50;;;;;;;;;;5034139;28;20112;-80
2022/04/21 10:26:51;;;;;;;5.90;5.40;;;;;;;;;;5024834;28;20042;-81
2022/04/21 10:29:27;;;;;;;6.30;5.78;;;;;;;;;;5023500;28;20042;-82
2022/04/21 10:32:00;;;;;;;8.60;6.13;;;;;;;;;;5022483;28;20435;-82
2022/04/21 10:34:27;;;;;;;6.13;5.60;;;;;;;;;;5028692;28;20100;-81
2022/04/21 10:37:10;;;;;;;7.15;5.47;;;;;;;;;;5032303;28;20044;-82
2022/04/21 10:39:38;;;;;;;6.10;5.50;;;;;;;;;;5030126;28;20052;-81
2022/04/21 10:42:35;;;;;;;6.03;5.63;;;;;;;;;;5054142;22;20045;-79
2022/04/21 10:45:12;;;;;;;6.43;5.82;;;;;;;;;;5045183;28;20041;-79
2022/04/21 10:47:41;;;;;;;6.20;5.68;;;;;;;;;;5043414;28;20112;-78
2022/04/21 10:50:18;;;;;;;6.97;6.10;;;;;;;;;;5047622;28;20789;-78
2022/04/21 10:58:50;;;;;;;6.07;5.60;;;;;;;;;;5047769;28;20059;-78
2022/04/21 11:01:18;;;;;;;8.07;5.93;;;;;;;;;;5056889;28;20435;-79
2022/04/21 11:03:47;;;;;;;7.70;7.00;;;;;;;;;;5041271;28;20059;-79
2022/04/21 11:06:15;;;;;;;8.10;6.45;;;;;;;;;;5054393;28;20059;-78
2022/04/21 11:08:43;;;;;;;8.82;6.05;;;;;;;;;;5056307;28;20075;-78
2022/04/21 11:11:13;;;;;;;6.82;5.72;;;;;;;;;;5055343;28;20044;-78
2022/04/21 11:13:50;;;;;;;6.78;6.18;;;;;;;;;;5041328;28;20045;-78
2022/04/21 11:16:36;;;;;;;5.80;5.30;;;;;;;;;;5057710;28;20879;-79
2022/04/21 11:19:34;;;;;;;6.10;5.50;;;;;;;;;;5058177;28;20052;-78
2022/04/21 11:22:05;;;;;;;6.50;5.80;;;;;;;;;;5050097;28;20106;-77
2022/04/21 11:24:51;;;;;;;6.40;5.90;;;;;;;;;;5056271;28;20044;-78
2022/04/21 11:27:19;;;;;;;6.18;5.68;;;;;;;;;;5055739;28;20722;-78
2022/04/21 11:29:47;;;;;;;6.43;5.93;;;;;;;;;;5061494;28;20591;-77
2022/04/21 11:32:18;;;;;;;7.38;6.53;;;;;;;;;;5057315;28;20462;-78
2022/04/21 11:34:58;;;;;;;6.68;6.18;;;;;;;;;;5049785;28;20044;-78
2022/04/21 11:37:44;;;;;;;7.05;6.47;;;;;;;;;;5049464;28;20399;-77
2022/04/21 11:40:19;;;;;;;6.93;6.32;;;;;;;;;;5057945;28;20106;-78
2022/04/21 11:42:48;;;;;;;7.85;6.15;;;;;;;;;;5056583;28;20041;-78
2022/04/21 11:45:19;;;;;;;7.20;5.93;;;;;;;;;;5057376;28;20200;-77
2022/04/21 11:47:46;;;;;;;6.97;5.70;;;;;;;;;;5056171;28;20129;-78
2022/04/21 11:50:24;;;;;;;5.90;5.25;;;;;;;;;;5062020;28;20045;-78
2022/04/21 11:52:54;;;;;;;4.82;4.45;;;;;;;;;;5049659;28;20044;-78
2022/04/21 11:55:27;;;;;;;5.10;4.70;;;;;;;;;;5046689;28;20076;-78
2022/04/21 11:57:55;;;;;;;4.70;4.40;;;;;;;;;;5066372;28;20036;-77
2022/04/21 12:08:47;;;;;;;4.70;4.30;;;;;;;;;;5056119;28;20037;-77
2022/04/21 12:11:17;;;;;;;4.85;4.00;;;;;;;;;;5043036;28;20553;-77
2022/04/21 12:13:45;;;;;;;9.75;8.13;;;;;;;;;;5039297;28;20087;-77
2022/04/21 12:16:31;;;;;;;5.82;5.05;;;;;;;;;;5063915;28;20097;-78
2022/04/21 12:19:10;;;;;;;12.45;9.85;;;;;;;;;;5047599;28;20136;-76
2022/04/21 12:21:37;;;;;;;4.97;4.38;;;;;;;;;;5047960;28;20045;-77
2022/04/21 12:24:11;;;;;;;4.18;3.88;;;;;;;;;;5049388;28;20045;-77
2022/04/21 12:26:39;;;;;;;3.90;3.60;;;;;;;;;;5040304;28;20045;-77
2022/04/21 12:29:07;;;;;;;4.13;3.22;;;;;;;;;;5036734;28;20044;-77
2022/04/21 12:31:44;;;;;;;4.85;4.45;;;;;;;;;;5038101;28;20037;-77
2022/04/21 12:34:12;;;;;;;4.85;4.22;;;;;;;;;;5049874;28;20032;-77
2022/04/21 12:36:49;;;;;;;4.65;4.35;;;;;;;;;;5048117;28;20052;-77
2022/04/21 12:39:18;;;;;;;4.15;3.85;;;;;;;;;;5058673;28;20045;-77
2022/04/21 12:42:05;;;;;;;5.20;4.75;;;;;;;;;;5046623;28;20037;-76
2022/04/21 12:44:33;;;;;;;5.10;4.60;;;;;;;;;;5047730;28;20146;-76
2022/04/21 12:47:02;;;;;;;4.50;4.10;;;;;;;;;;5049054;28;20451;-77
2022/04/21 12:49:48;;;;;;;3.88;3.63;;;;;;;;;;5051167;28;20045;-77
2022/04/21 12:52:31;;;;;;;3.80;3.50;;;;;;;;;;5062205;28;20193;-76
2022/04/21 12:54:59;;;;;;;2.77;2.63;;;;;;;;;;5046197;28;20045;-77
2022/04/21 12:57:27;;;;;;;3.22;3.03;;;;;;;;;;5053926;28;20047;-77
2022/04/21 12:59:55;;;;;;;3.22;3.00;;;;;;;;;;5039519;28;20497;-77
2022/04/21 13:02:23;;;;;;;4.15;3.65;;;;;;;;;;5035360;28;20118;-77
2022/04/21 13:04:50;;;;;;;3.35;3.15;;;;;;;;;;5033809;28;20045;-77
2022/04/21 13:07:18;;;;;;;3.58;3.28;;;;;;;;;;5039079;28;20040;-77
2022/04/21 13:09:46;;;;;;;3.30;3.00;;;;;;;;;;5045541;28;20036;-76
2022/04/21 13:12:13;;;;;;;3.83;3.53;;;;;;;;;;5039752;28;20505;-76
2022/04/21 13:14:41;;;;;;;3.60;3.30;;;;;;;;;;5036621;28;20037;-77
2022/04/21 13:17:08;;;;;;;4.80;4.38;;;;;;;;;;5039525;28;20765;-77
2022/04/21 13:19:36;;;;;;;3.55;3.25;;;;;;;;;;5034303;28;20091;-77
2022/04/21 13:22:04;;;;;;;3.97;3.67;;;;;;;;;;5044648;28;20056;-76
2022/04/21 13:24:32;;;;;;;7.28;3.78;;;;;;;;;;5047403;28;20084;-77
2022/04/21 13:27:02;;;;;;;4.38;4.07;;;;;;;;;;5045108;28;20048;-77
2022/04/21 13:29:29;;;;;;;6.95;4.38;;;;;;;;;;5046073;28;20057;-77
2022/04/21 13:34:44;;;;;;;4.28;3.97;;;;;;;;;;5040809;28;20037;-76
2022/04/21 13:37:11;;;;;;;3.70;3.40;;;;;;;;;;5049050;28;20543;-76
2022/04/21 13:39:40;;;;;;;3.90;3.60;;;;;;;;;;5041932;28;20068;-76
2022/04/21 13:42:09;;;;;;;3.90;3.65;;;;;;;;;;5073095;22;20037;-79
2022/04/21 13:45:01;;;;;;;4.80;4.40;;;;;;;;;;5065831;28;20076;-77
2022/04/21 13:48:04;;;;;;;3.60;3.40;;;;;;;;;;5065474;28;20385;-80
2022/04/21 13:50:37;;;;;;;3.93;3.63;;;;;;;;;;5075672;28;20041;-79
2022/04/21 13:53:06;;;;;;;3.67;3.38;;;;;;;;;;5042814;28;20049;-79
2022/04/21 13:55:36;;;;;;;4.10;3.75;;;;;;;;;;5050226;28;20044;-78
2022/04/21 13:58:04;;;;;;;4.55;4.15;;;;;;;;;;5014972;28;20072;-78
2022/04/21 14:00:31;;;;;;;4.57;4.18;;;;;;;;;;5047668;28;20072;-80
2022/04/21 14:02:58;;;;;;;5.90;5.00;;;;;;;;;;5044952;28;20059;-79
2022/04/21 14:05:26;;;;;;;5.15;4.75;;;;;;;;;;5047600;28;20080;-79
2022/04/21 14:07:53;;;;;;;4.55;4.25;;;;;;;;;;5048342;28;20128;-79
2022/04/21 14:10:21;;;;;;;4.32;3.92;;;;;;;;;;5047104;28;20040;-79
2022/04/21 14:12:48;;;;;;;4.13;3.83;;;;;;;;;;5044471;28;20048;-79
2022/04/21 14:15:18;;;;;;;3.85;3.45;;;;;;;;;;5044356;28;20053;-79
2022/04/21 14:17:46;;;;;;;5.28;4.80;;;;;;;;;;5050556;28;20064;-79
2022/04/21 14:20:15;;;;;;;4.60;4.22;;;;;;;;;;5063823;28;20029;-78
2022/04/21 14:22:42;;;;;;;4.80;4.40;;;;;;;;;;5053825;28;20091;-80
2022/04/21 14:25:10;;;;;;;3.90;3.60;;;;;;;;;;5041707;28;20056;-79
2022/04/21 14:27:37;;;;;;;4.72;3.20;;;;;;;;;;5038259;28;20461;-79
2022/04/21 14:30:06;;;;;;;3.20;3.00;;;;;;;;;;5043150;28;20075;-79
2022/04/21 14:32:34;;;;;;;3.38;3.17;;;;;;;;;;5046317;28;20509;-80
2022/04/21 14:35:02;;;;;;;3.13;2.92;;;;;;;;;;5043009;28;20040;-79
2022/04/21 14:45:47;;;;;;;4.43;3.13;;;;;;;;;;5049627;28;20045;-78
2022/04/21 14:48:15;;;;;;;4.28;3.88;;;;;;;;;;5051870;28;20464;-79
2022/04/21 14:50:43;;;;;;;4.05;3.38;;;;;;;;;;5055207;28;20170;-81
2022/04/21 14:53:11;;;;;;;3.85;3.45;;;;;;;;;;5052155;28;20073;-78
2022/04/21 14:55:40;;;;;;;3.78;3.25;;;;;;;;;;5054644;28;20880;-79
2022/04/21 14:58:07;;;;;;;3.75;3.45;;;;;;;;;;5060066;28;20045;-77
2022/04/21 15:00:39;;;;;;;4.30;3.90;;;;;;;;;;5048397;28;20053;-76
2022/04/21 15:03:07;;;;;;;4.10;3.80;;;;;;;;;;5043351;28;20041;-79
2022/04/21 15:05:35;;;;;;;3.78;3.38;;;;;;;;;;5049578;28;20048;-79
2022/04/21 15:08:07;;;;;;;4.35;3.60;;;;;;;;;;5053206;28;20049;-78
2022/04/21 15:10:37;;;;;;;3.88;3.58;;;;;;;;;;5048724;28;20761;-80
2022/04/21 15:13:04;;;;;;;4.20;3.80;;;;;;;;;;5050006;28;20738;-79
2022/04/21 15:15:31;;;;;;;3.70;3.50;;;;;;;;;;5050933;28;20049;-80
2022/04/21 15:17:59;;;;;;;4.85;3.70;;;;;;;;;;5047426;28;20045;-80
2022/04/21 15:20:28;;;;;;;3.45;3.25;;;;;;;;;;5045979;28;20087;-80
2022/04/21 15:22:56;;;;;;;2.92;2.72;;;;;;;;;;5044262;28;20416;-79
2022/04/21 15:25:24;;;;;;;3.40;3.10;;;;;;;;;;5049864;28;20047;-79
2022/04/21 15:27:53;;;;;;;5.90;3.65;;;;;;;;;;5056858;28;20044;-78
2022/04/21 15:30:21;;;;;;;3.33;3.03;;;;;;;;;;5058814;28;20438;-78
2022/04/21 15:32:53;;;;;;;3.47;3.28;;;;;;;;;;5054802;28;20324;-78
2022/04/21 15:35:21;;;;;;;4.32;3.50;;;;;;;;;;5041605;28;20049;-79
2022/04/21 15:37:50;;;;;;;5.53;3.25;;;;;;;;;;5057403;28;20044;-78
2022/04/21 15:40:17;;;;;;;3.38;3.17;;;;;;;;;;5047233;28;20045;-77
2022/04/21 15:42:45;;;;;;;4.25;3.80;;;;;;;;;;5042634;28;20053;-78
2022/04/21 15:45:12;;;;;;;3.20;3.00;;;;;;;;;;5053144;28;20072;-78
2022/04/21 15:47:40;;;;;;;3.47;3.20;;;;;;;;;;5041120;28;20107;-77
2022/04/21 15:50:07;;;;;;;3.47;3.20;;;;;;;;;;5026388;28;20699;-78
2022/04/21 15:52:35;;;;;;;3.28;3.08;;;;;;;;;;5046644;28;20044;-78
2022/04/21 16:00:36;;;;;;;3.15;2.95;;;;;;;;;;5039050;28;20053;-79
2022/04/21 16:03:03;;;;;;;3.78;2.80;;;;;;;;;;5032775;28;20041;-78
2022/04/21 16:05:30;;;;;;;3.35;3.05;;;;;;;;;;5044550;28;20140;-77
2022/04/21 16:07:58;;;;;;;3.45;3.25;;;;;;;;;;5047592;28;20041;-79
2022/04/21 16:10:25;;;;;;;3.00;2.80;;;;;;;;;;5042856;28;20044;-78
2022/04/21 16:12:56;;;;;;;3.67;3.40;;;;;;;;;;5038035;28;20548;-78
2022/04/21 16:15:23;;;;;;;3.28;2.97;;;;;;;;;;5044594;28;20716;-79
2022/04/21 16:17:50;;;;;;;3.55;3.13;;;;;;;;;;5044344;28;20052;-77
2022/04/21 16:20:18;;;;;;;4.05;3.10;;;;;;;;;;5046317;28;20048;-76
2022/04/21 16:22:46;;;;;;;3.38;3.17;;;;;;;;;;5043634;28;20040;-77
2022/04/21 16:25:13;;;;;;;3.58;3.28;;;;;;;;;;5061552;28;20052;-80
2022/04/21 16:27:41;;;;;;;3.20;3.00;;;;;;;;;;5042285;28;20048;-78
2022/04/21 16:30:09;;;;;;;3.55;3.25;;;;;;;;;;5026118;28;20045;-77
2022/04/21 16:32:39;;;;;;;2.92;2.72;;;;;;;;;;5039901;28;20053;-77
2022/04/21 16:35:07;;;;;;;3.42;3.13;;;;;;;;;;5042472;28;20045;-77